Time;durP1;ratioP1;P1;durP2;ratioP2;P2;SDS_P1;SDS_P2;PMS_P1;PMS_P2;Temp;Humidity;BMP_temperature;BMP_pressure;BME280_temperature;BME280_humidity;BME280_pressure;Samples;Min_cycle;Max_cycle;Signal;HPM_P1;HPM_P2
2022/08/06 00:00:33;;;;;;;19.23;13.05;;;;;;;22.95;50.82;99967.25;6231988;22;20099;-62
2022/08/06 00:02:58;;;;;;;17.63;12.95;;;;;;;23.01;50.68;99961.13;6230883;22;20472;-62
2022/08/06 00:05:24;;;;;;;22.83;13.30;;;;;;;23.03;50.95;99964.47;6231812;22;20019;-61
2022/08/06 00:07:49;;;;;;;24.85;12.45;;;;;;;23.01;50.89;99963.84;6231937;22;20012;-62
2022/08/06 00:10:18;;;;;;;21.42;13.38;;;;;;;23.02;51.24;99968.25;6230762;22;20028;-62
2022/08/06 00:12:43;;;;;;;16.77;11.77;;;;;;;22.97;50.32;99962.50;6231216;22;20011;-62
2022/08/06 00:15:08;;;;;;;18.50;12.95;;;;;;;22.94;51.08;99968.28;6228890;22;20058;-61
2022/08/06 00:17:33;;;;;;;20.05;14.85;;;;;;;22.92;52.63;99976.63;6230637;22;20095;-62
2022/08/06 00:19:59;;;;;;;21.67;12.80;;;;;;;22.87;50.96;99961.91;6230555;22;20043;-62
2022/08/06 00:22:23;;;;;;;19.83;12.65;;;;;;;22.84;51.75;99968.53;6230449;22;20015;-62
2022/08/06 00:24:48;;;;;;;21.35;14.48;;;;;;;22.80;53.15;99968.03;6230141;22;20072;-61
2022/08/06 00:27:13;;;;;;;20.50;14.00;;;;;;;22.78;53.46;99970.13;6178291;22;20022;-62
2022/08/06 00:29:38;;;;;;;21.00;14.75;;;;;;;22.73;54.01;99972.47;6230497;22;20026;-62
2022/08/06 00:32:02;;;;;;;23.20;16.33;;;;;;;22.70;52.58;99966.56;6230318;22;20018;-62
2022/08/06 00:34:27;;;;;;;55.88;15.95;;;;;;;22.68;52.63;99963.19;6230357;22;20070;-62
2022/08/06 00:36:52;;;;;;;20.15;14.48;;;;;;;22.66;54.11;99965.25;6228940;22;20016;-62
2022/08/06 00:39:17;;;;;;;19.45;14.70;;;;;;;22.60;53.84;99965.94;6230266;22;20016;-62
2022/08/06 00:41:42;;;;;;;19.50;14.63;;;;;;;22.55;54.55;99962.94;6230031;22;20016;-62
2022/08/06 00:44:07;;;;;;;22.42;15.05;;;;;;;22.49;54.67;99961.75;6203082;22;20042;-62
2022/08/06 00:46:31;;;;;;;24.58;16.88;;;;;;;22.42;54.98;99963.50;6229604;22;20086;-62
2022/08/06 00:48:56;;;;;;;22.70;15.40;;;;;;;22.38;55.11;99967.59;6230003;22;20015;-63
2022/08/06 00:51:22;;;;;;;24.20;17.27;;;;;;;22.33;54.99;99968.13;6228744;22;20019;-62
2022/08/06 00:53:47;;;;;;;20.40;13.80;;;;;;;22.30;55.64;99965.75;6203111;22;20020;-62
2022/08/06 00:56:12;;;;;;;26.33;17.77;;;;;;;22.29;55.71;99968.66;6229626;22;20069;-63
2022/08/06 00:58:37;;;;;;;19.77;13.95;;;;;;;22.26;55.42;99977.16;6227831;22;20039;-66
2022/08/06 01:01:02;;;;;;;23.98;14.98;;;;;;;22.21;55.97;99963.28;6226060;22;20043;-64
2022/08/06 01:03:27;;;;;;;27.42;15.25;;;;;;;22.19;55.86;99968.03;6198348;22;20051;-66
2022/08/06 01:05:52;;;;;;;22.60;15.38;;;;;;;22.17;55.49;99964.63;6228160;22;20023;-65
2022/08/06 01:08:16;;;;;;;20.42;14.13;;;;;;;22.15;56.61;99966.69;6229000;22;20039;-64
2022/08/06 01:10:42;;;;;;;18.08;13.60;;;;;;;22.12;56.28;99973.31;6229616;22;20039;-65
2022/08/06 01:13:07;;;;;;;23.83;13.30;;;;;;;22.04;56.29;99962.47;6228699;22;20043;-64
2022/08/06 01:15:36;;;;;;;21.60;13.93;;;;;;;21.99;54.73;99971.16;6226464;22;20012;-66
2022/08/06 01:18:16;;;;;;;32.80;15.18;;;;;;;21.98;55.31;99974.00;6223716;22;20015;-66
2022/08/06 01:20:59;;;;;;;20.23;13.07;;;;;;;21.89;54.48;99972.34;6224452;22;20024;-66
2022/08/06 01:23:45;;;;;;;19.35;12.95;;;;;;;21.91;54.19;99979.28;6225599;22;20098;-64
2022/08/06 01:26:46;;;;;;;22.50;13.88;;;;;;;21.87;54.98;99975.25;6235458;22;20011;-67
2022/08/06 01:29:19;;;;;;;21.52;12.32;;;;;;;21.78;54.45;99976.28;6234524;22;20012;-67
2022/08/06 01:31:55;;;;;;;23.10;12.30;;;;;;;21.82;54.27;99972.19;6240525;22;20054;-67
2022/08/06 01:34:40;;;;;;;20.25;13.32;;;;;;;21.81;54.91;99984.06;6238237;22;20023;-70
2022/08/06 01:37:25;;;;;;;19.80;13.90;;;;;;;21.76;57.48;99975.59;6239507;22;20477;-66
2022/08/06 01:39:55;;;;;;;18.13;13.57;;;;;;;21.69;58.82;99970.00;6238496;22;20023;-66
2022/08/06 01:42:21;;;;;;;20.55;12.98;;;;;;;21.69;59.38;99983.56;6233200;22;20042;-67
2022/08/06 01:44:49;;;;;;;21.77;13.18;;;;;;;21.69;60.05;99990.88;6222553;22;20051;-65
2022/08/06 01:47:18;;;;;;;30.45;14.10;;;;;;;21.71;59.51;99986.13;6238465;22;20011;-67
2022/08/06 01:49:55;;;;;;;19.45;13.95;;;;;;;21.76;60.23;99989.19;6230072;22;20038;-66
2022/08/06 01:52:22;;;;;;;17.73;13.13;;;;;;;21.72;59.35;99983.25;6231724;22;20019;-66
2022/08/06 01:54:50;;;;;;;17.90;13.75;;;;;;;21.76;59.17;99983.75;6231111;22;20016;-67
2022/08/06 01:57:17;;;;;;;17.55;11.95;;;;;;;21.79;58.45;99996.94;6229343;22;20141;-67
2022/08/06 01:59:47;;;;;;;17.73;13.50;;;;;;;21.85;58.56;99990.84;6229840;22;20019;-64
2022/08/06 02:02:17;;;;;;;21.25;13.93;;;;;;;21.90;57.81;99991.16;6229856;22;20026;-67
2022/08/06 02:04:44;;;;;;;17.20;12.68;;;;;;;21.93;57.11;99990.81;6230934;22;20016;-72
2022/08/06 02:07:13;;;;;;;23.35;14.20;;;;;;;21.99;56.74;99986.59;6230892;22;20019;-69
2022/08/06 02:09:40;;;;;;;21.55;13.90;;;;;;;22.03;56.54;99983.34;6229319;22;20024;-70
2022/08/06 02:12:14;;;;;;;20.85;12.98;;;;;;;22.07;56.41;99976.56;6229195;22;20103;-70
2022/08/06 02:14:44;;;;;;;22.13;12.80;;;;;;;22.12;56.50;99986.06;6204297;22;20463;-69
2022/08/06 02:17:12;;;;;;;24.40;13.90;;;;;;;22.16;55.92;99984.66;6230988;22;20015;-68
2022/08/06 02:19:40;;;;;;;22.40;13.80;;;;;;;22.20;56.18;99996.88;6231242;22;20060;-66
2022/08/06 02:22:05;;;;;;;19.80;13.38;;;;;;;22.23;56.38;99991.94;6229410;22;20430;-65
2022/08/06 02:24:32;;;;;;;16.17;12.13;;;;;;;22.29;56.04;99991.22;6230770;22;20358;-67
2022/08/06 02:27:01;;;;;;;20.55;12.23;;;;;;;22.34;56.53;99994.28;6231131;22;20016;-64
2022/08/06 02:29:27;;;;;;;20.75;13.50;;;;;;;22.37;56.12;99987.63;6231102;22;20442;-72
2022/08/06 02:31:53;;;;;;;19.30;12.95;;;;;;;22.44;56.98;99991.34;6230748;22;20474;-68
2022/08/06 02:34:22;;;;;;;18.52;11.73;;;;;;;22.51;57.31;100005.91;6230479;22;20068;-63
2022/08/06 02:36:57;;;;;;;15.70;13.20;;;;;;;22.57;56.38;99994.34;6230644;22;20026;-64
2022/08/06 02:39:26;;;;;;;17.13;13.57;;;;;;;22.63;56.94;100004.47;6230951;22;20023;-64
2022/08/06 02:42:02;;;;;;;15.70;11.48;;;;;;;22.72;55.99;100000.69;6230857;22;20019;-63
2022/08/06 02:44:56;;;;;;;19.15;13.05;;;;;;;22.77;56.10;100000.19;6230649;22;20018;-63
2022/08/06 02:47:59;;;;;;;25.95;14.05;;;;;;;22.90;55.61;100005.91;6222942;22;20167;-63
2022/08/06 02:50:31;;;;;;;17.95;12.38;;;;;;;22.93;56.25;100002.78;6224583;22;20019;-63
2022/08/06 02:53:02;;;;;;;22.83;13.02;;;;;;;22.96;55.68;99998.88;6231759;22;20450;-64
2022/08/06 02:55:33;;;;;;;17.67;13.32;;;;;;;23.01;55.68;100002.75;6229178;22;20053;-64
2022/08/06 02:58:07;;;;;;;16.90;12.82;;;;;;;23.10;55.73;99995.38;6230296;22;20019;-64
2022/08/06 03:00:36;;;;;;;26.85;13.65;;;;;;;23.19;55.19;100007.88;6230581;22;20015;-64
2022/08/06 03:03:04;;;;;;;22.42;12.98;;;;;;;23.29;54.59;99994.88;6229153;22;20020;-64
2022/08/06 03:05:29;;;;;;;22.50;13.98;;;;;;;23.37;54.47;99992.06;6228631;22;20127;-67
2022/08/06 03:07:57;;;;;;;19.83;12.55;;;;;;;23.50;54.11;100003.22;6230511;22;20016;-65
2022/08/06 03:10:24;;;;;;;17.10;13.85;;;;;;;23.58;53.96;99996.03;6229194;22;20034;-64
2022/08/06 03:12:51;;;;;;;19.02;12.88;;;;;;;23.63;54.44;99993.59;6228878;22;20015;-66
2022/08/06 03:15:18;;;;;;;21.13;14.15;;;;;;;23.69;54.60;99990.97;6230679;22;20458;-66
2022/08/06 03:17:45;;;;;;;21.52;12.65;;;;;;;23.74;53.74;99988.53;6230718;22;20019;-67
2022/08/06 03:20:12;;;;;;;19.35;14.63;;;;;;;23.82;54.28;99999.31;6230664;22;20022;-70
2022/08/06 03:22:39;;;;;;;18.67;13.05;;;;;;;23.89;53.72;99997.56;6231891;22;20019;-69
2022/08/06 03:25:06;;;;;;;20.05;14.05;;;;;;;23.94;53.69;100005.16;6231278;22;20020;-68
2022/08/06 03:27:32;;;;;;;21.95;14.60;;;;;;;23.96;54.11;100003.09;6232272;22;20095;-68
2022/08/06 03:29:59;;;;;;;20.27;14.73;;;;;;;24.06;53.33;100002.81;6234003;22;20021;-69
2022/08/06 03:32:25;;;;;;;19.08;13.65;;;;;;;24.17;53.30;99995.03;6205438;22;20025;-69
2022/08/06 03:34:51;;;;;;;20.48;13.07;;;;;;;24.32;53.33;99989.59;6231703;22;20015;-67
2022/08/06 03:37:18;;;;;;;18.02;13.75;;;;;;;24.46;52.89;99991.47;6230005;22;20070;-67
2022/08/06 03:39:45;;;;;;;18.38;13.55;;;;;;;24.54;52.43;99994.06;6230625;22;20122;-67
2022/08/06 03:42:09;;;;;;;22.58;13.98;;;;;;;24.59;52.57;99988.91;6203772;22;20019;-68
2022/08/06 03:44:36;;;;;;;21.15;13.70;;;;;;;24.63;52.09;99991.22;6230667;22;20077;-68
2022/08/06 03:47:07;;;;;;;24.27;13.60;;;;;;;24.67;52.05;99996.13;6203261;22;20389;-68
2022/08/06 03:49:42;;;;;;;20.20;14.43;;;;;;;24.76;51.94;99994.97;6203404;22;20024;-68
2022/08/06 03:52:10;;;;;;;22.15;14.15;;;;;;;24.81;51.65;100003.44;6230270;22;20027;-68
2022/08/06 03:54:40;;;;;;;20.45;13.57;;;;;;;24.89;51.71;100006.03;6228743;22;20109;-70
2022/08/06 03:57:15;;;;;;;21.20;13.60;;;;;;;24.99;51.62;100004.88;6228499;22;20023;-67
2022/08/06 03:59:43;;;;;;;20.20;14.63;;;;;;;25.02;51.45;100004.50;6229214;22;20020;-68
2022/08/06 04:02:09;;;;;;;21.25;14.30;;;;;;;25.08;51.61;100009.19;6203115;22;20019;-67
2022/08/06 04:04:36;;;;;;;19.17;14.15;;;;;;;25.13;51.27;100006.72;6229009;22;20016;-67
2022/08/06 04:07:01;;;;;;;22.13;14.38;;;;;;;25.16;50.90;100003.63;6230488;22;20015;-68
2022/08/06 04:09:29;;;;;;;17.98;14.02;;;;;;;25.21;51.13;99998.41;6230464;22;20020;-68
2022/08/06 04:11:54;;;;;;;18.75;14.25;;;;;;;25.29;50.95;99998.25;6230154;22;20083;-67
2022/08/06 04:14:20;;;;;;;26.38;15.02;;;;;;;25.41;50.18;99996.69;6203120;22;20161;-67
2022/08/06 04:16:45;;;;;;;17.65;14.10;;;;;;;25.44;50.34;100009.94;6202771;22;20011;-69
2022/08/06 04:19:12;;;;;;;21.23;14.60;;;;;;;25.48;50.25;100011.25;6229807;22;20351;-68
2022/08/06 04:21:38;;;;;;;20.55;14.38;;;;;;;25.59;49.80;100016.19;6229928;22;20027;-70
2022/08/06 04:24:03;;;;;;;21.45;13.77;;;;;;;25.64;50.12;100011.00;6203251;22;20533;-71
2022/08/06 04:26:28;;;;;;;23.48;14.27;;;;;;;25.71;50.24;100008.31;6230397;22;20019;-71
2022/08/06 04:28:55;;;;;;;20.88;13.52;;;;;;;25.85;49.85;100001.06;6228993;22;20050;-72
2022/08/06 04:31:21;;;;;;;18.92;12.57;;;;;;;25.99;49.61;100008.31;6228623;22;20074;-72
2022/08/06 04:33:47;;;;;;;19.58;13.00;;;;;;;26.10;49.39;100012.34;6202558;22;20041;-68
2022/08/06 04:36:13;;;;;;;18.08;13.07;;;;;;;26.22;48.66;100008.88;6230376;22;20015;-68
2022/08/06 04:38:39;;;;;;;21.52;13.32;;;;;;;26.41;48.95;100009.22;6230236;22;20165;-67
2022/08/06 04:41:04;;;;;;;27.77;14.25;;;;;;;26.67;48.80;100007.41;6203234;22;20020;-68
2022/08/06 04:43:30;;;;;;;17.08;13.50;;;;;;;26.88;48.01;100009.16;6228137;22;20026;-67
2022/08/06 04:45:55;;;;;;;22.40;13.00;;;;;;;27.09;47.38;99999.97;6229958;22;20019;-67
2022/08/06 04:48:22;;;;;;;19.02;12.40;;;;;;;27.26;47.31;100011.41;6229825;22;20459;-67
2022/08/06 04:50:47;;;;;;;25.02;14.52;;;;;;;27.45;46.75;100003.19;6230319;22;20077;-68
2022/08/06 04:53:14;;;;;;;18.48;13.73;;;;;;;27.59;46.16;99987.63;6230044;22;20019;-70
2022/08/06 04:55:40;;;;;;;17.98;13.18;;;;;;;27.83;45.86;100000.69;6229806;22;20042;-69
2022/08/06 04:58:07;;;;;;;22.48;13.93;;;;;;;27.98;45.24;100005.09;6229693;22;20043;-68
2022/08/06 05:00:33;;;;;;;23.73;15.30;;;;;;;28.04;44.71;100002.34;6230016;22;20015;-68
2022/08/06 05:02:58;;;;;;;22.60;14.60;;;;;;;28.06;44.79;100004.88;6229944;22;20374;-68
2022/08/06 05:05:23;;;;;;;20.92;13.98;;;;;;;28.19;44.79;100007.63;6238840;22;20019;-68
2022/08/06 05:07:52;;;;;;;19.25;14.65;;;;;;;28.16;44.75;100008.84;6251353;22;20043;-67
2022/08/06 05:10:17;;;;;;;23.17;14.88;;;;;;;28.06;44.77;99997.50;6252684;22;20011;-68
2022/08/06 05:12:45;;;;;;;18.42;14.43;;;;;;;28.01;45.46;99999.16;6231867;22;20030;-69
2022/08/06 05:15:25;;;;;;;23.98;15.30;;;;;;;28.15;45.68;100007.16;6229769;22;20019;-69
2022/08/06 05:18:06;;;;;;;20.45;15.25;;;;;;;28.26;44.73;100002.09;6232410;22;20070;-69
2022/08/06 05:20:34;;;;;;;17.95;13.32;;;;;;;28.46;44.42;100009.19;6228582;22;20021;-69
2022/08/06 05:23:03;;;;;;;18.05;14.30;;;;;;;28.49;44.72;100000.53;6227579;22;20350;-69
2022/08/06 05:25:28;;;;;;;20.58;14.43;;;;;;;28.58;44.53;100003.88;6229175;22;20377;-68
2022/08/06 05:27:54;;;;;;;17.63;14.02;;;;;;;28.75;44.20;100007.81;6228224;22;20332;-69
2022/08/06 05:30:20;;;;;;;18.83;13.85;;;;;;;28.92;43.79;100008.16;6228457;22;20022;-69
2022/08/06 05:32:47;;;;;;;17.67;14.40;;;;;;;29.14;43.84;100006.78;6228245;22;20018;-68
2022/08/06 05:35:12;;;;;;;18.98;13.98;;;;;;;29.40;43.68;100021.41;6230023;22;20015;-68
2022/08/06 05:37:37;;;;;;;21.35;14.35;;;;;;;29.62;42.57;100003.50;6229029;22;20015;-69
2022/08/06 05:40:02;;;;;;;20.63;14.07;;;;;;;29.81;42.10;100002.47;6227755;22;20069;-69
2022/08/06 05:42:27;;;;;;;17.45;13.10;;;;;;;30.04;41.68;99993.59;6229150;22;20027;-66
2022/08/06 05:44:52;;;;;;;20.77;13.55;;;;;;;30.19;41.62;100002.31;6229737;22;20011;-70
2022/08/06 05:47:22;;;;;;;19.55;14.57;;;;;;;30.36;41.53;100007.22;6227973;22;20107;-70
2022/08/06 05:49:52;;;;;;;19.55;14.57;;;;;;;30.62;40.76;100004.16;6227749;22;20043;-71
2022/08/06 05:52:26;;;;;;;17.45;13.85;;;;;;;30.95;40.18;100004.56;6229337;22;20351;-70
2022/08/06 05:55:01;;;;;;;21.23;12.48;;;;;;;31.11;39.40;100002.25;6229211;22;20016;-70
2022/08/06 05:57:42;;;;;;;16.48;12.90;;;;;;;31.09;39.47;100005.25;6202042;22;20011;-70
2022/08/06 06:00:11;;;;;;;20.38;14.55;;;;;;;31.01;39.23;100008.31;6227423;22;20102;-69
2022/08/06 06:02:40;;;;;;;18.85;16.10;;;;;;;31.02;39.76;100007.25;6230252;22;20016;-70
2022/08/06 06:05:07;;;;;;;16.98;14.18;;;;;;;31.07;38.93;100003.75;6229816;22;20091;-71
2022/08/06 06:07:32;;;;;;;19.23;13.85;;;;;;;31.24;39.00;99996.56;6202360;22;20011;-71
2022/08/06 06:09:57;;;;;;;18.10;13.48;;;;;;;31.59;38.45;99999.38;6227767;22;20378;-70
2022/08/06 06:12:23;;;;;;;18.30;13.02;;;;;;;31.97;38.11;99997.00;6233124;22;20034;-70
2022/08/06 06:14:50;;;;;;;20.13;13.93;;;;;;;32.42;37.26;100005.50;6238895;22;20012;-70
2022/08/06 06:17:24;;;;;;;17.23;14.40;;;;;;;32.63;36.70;99995.72;6239901;22;20020;-70
2022/08/06 06:20:09;;;;;;;17.73;13.95;;;;;;;32.99;36.22;99999.22;6233350;22;20015;-71
2022/08/06 06:23:00;;;;;;;17.27;12.98;;;;;;;33.45;35.69;100010.06;6231126;22;20016;-70
2022/08/06 06:25:30;;;;;;;18.80;13.65;;;;;;;33.83;34.57;100000.22;6229781;22;20078;-69
2022/08/06 06:28:29;;;;;;;19.73;13.93;;;;;;;34.06;34.55;100000.00;6202187;22;20011;-70
2022/08/06 06:31:05;;;;;;;16.00;12.70;;;;;;;34.56;33.21;100010.09;6202060;22;20012;-69
2022/08/06 06:33:57;;;;;;;17.63;14.45;;;;;;;34.65;33.25;100000.28;6202337;22;20355;-67
2022/08/06 06:36:49;;;;;;;18.40;13.98;;;;;;;34.74;33.39;100001.50;6229761;22;20012;-73
2022/08/06 06:39:26;;;;;;;22.17;14.18;;;;;;;35.11;32.55;99996.09;6206381;22;20479;-73
2022/08/06 06:42:19;;;;;;;17.38;13.90;;;;;;;35.55;31.70;99996.00;6241268;22;20146;-71
2022/08/06 06:44:49;;;;;;;20.33;13.63;;;;;;;35.98;31.07;99992.19;6140565;23;20020;-73
2022/08/06 06:47:23;;;;;;;16.70;13.95;;;;;;;36.23;30.74;100000.66;6141158;23;20021;-72
2022/08/06 06:50:02;;;;;;;17.52;13.32;;;;;;;36.88;30.56;99993.75;6090302;23;20025;-72
2022/08/06 06:52:33;;;;;;;16.20;13.27;;;;;;;37.50;28.97;99995.53;6138411;23;20187;-72
2022/08/06 06:55:26;;;;;;;20.00;12.18;;;;;;;38.01;28.22;100001.94;6138178;23;20020;-74
2022/08/06 06:58:08;;;;;;;18.45;12.52;;;;;;;38.51;27.11;99995.38;6138961;23;20100;-72
2022/08/06 07:00:34;;;;;;;21.48;13.13;;;;;;;39.12;26.04;100000.72;6064926;23;20059;-72
2022/08/06 07:03:01;;;;;;;15.65;12.02;;;;;;;38.89;26.31;99997.75;6137851;23;20110;-73
2022/08/06 07:05:29;;;;;;;14.68;12.80;;;;;;;38.56;27.16;99999.31;6140865;23;20112;-74
2022/08/06 07:07:55;;;;;;;18.00;12.15;;;;;;;38.73;26.30;100002.56;6141035;23;20383;-72
2022/08/06 07:10:22;;;;;;;18.25;12.38;;;;;;;39.04;25.67;99998.53;6113228;23;20033;-73
2022/08/06 07:12:48;;;;;;;13.93;11.95;;;;;;;39.36;25.39;100011.16;6138982;23;20467;-72
2022/08/06 07:15:15;;;;;;;21.08;11.70;;;;;;;39.26;25.57;100005.66;6113455;23;20605;-72
2022/08/06 07:17:40;;;;;;;14.63;12.52;;;;;;;39.67;25.21;99995.84;6089509;23;20356;-70
2022/08/06 07:20:10;;;;;;;16.13;12.35;;;;;;;39.68;25.31;99991.94;6094837;22;20020;-71
2022/08/06 07:22:37;;;;;;;16.92;12.30;;;;;;;40.14;25.09;99994.28;6232251;22;20605;-71
2022/08/06 07:25:05;;;;;;;18.65;13.23;;;;;;;40.73;23.98;99993.06;6231715;22;20047;-73
2022/08/06 07:27:37;;;;;;;16.08;12.60;;;;;;;41.25;23.55;99992.03;6180703;22;20034;-72
2022/08/06 07:30:05;;;;;;;15.82;12.05;;;;;;;41.48;22.95;99981.88;6233793;22;20050;-73
2022/08/06 07:32:31;;;;;;;18.70;13.40;;;;;;;42.19;22.36;99991.84;6231359;22;20015;-74
2022/08/06 07:34:56;;;;;;;14.50;12.98;;;;;;;43.12;21.33;99987.59;6232637;22;20039;-71
2022/08/06 07:37:25;;;;;;;13.05;11.80;;;;;;;44.03;20.39;99999.38;6206248;22;20011;-72
2022/08/06 07:39:52;;;;;;;14.18;12.68;;;;;;;44.73;19.83;99990.06;6229789;22;20016;-71
2022/08/06 07:42:19;;;;;;;13.57;11.40;;;;;;;45.00;18.87;99991.78;6230528;22;20103;-71
2022/08/06 07:44:48;;;;;;;18.33;15.77;;;;;;;44.15;20.68;99996.78;6229810;22;20346;-70
2022/08/06 07:47:19;;;;;;;16.23;11.90;;;;;;;43.31;19.78;99991.09;6230664;22;20012;-71
2022/08/06 07:49:49;;;;;;;16.73;11.10;;;;;;;42.84;20.47;99984.06;6235081;22;20016;-71
2022/08/06 07:52:15;;;;;;;21.75;12.43;;;;;;;42.88;20.93;99989.88;6234712;22;20020;-71
2022/08/06 07:54:41;;;;;;;13.02;11.82;;;;;;;42.93;20.66;99989.75;6230653;22;20331;-71
2022/08/06 07:57:07;;;;;;;13.32;11.93;;;;;;;42.68;20.59;99991.94;6231640;22;20020;-71
2022/08/06 07:59:32;;;;;;;17.42;11.25;;;;;;;42.29;20.89;99984.06;6230475;22;20411;-71
2022/08/06 08:02:02;;;;;;;13.05;10.30;;;;;;;42.10;20.70;99979.69;6228750;22;20081;-70
2022/08/06 08:07:12;;;;;;;11.55;10.35;;;;;;;41.25;21.31;99967.69;6229966;22;20035;-71
2022/08/06 08:09:39;;;;;;;14.27;10.70;;;;;;;41.19;21.88;99974.53;6230119;22;20030;-70
2022/08/06 08:12:06;;;;;;;12.10;10.95;;;;;;;41.42;21.43;99981.16;6228566;22;20015;-71
2022/08/06 08:14:31;;;;;;;14.27;10.55;;;;;;;41.76;20.83;99980.88;6177689;22;20023;-74
2022/08/06 08:16:56;;;;;;;12.25;10.00;;;;;;;42.44;20.80;99971.75;6230847;22;20019;-72
2022/08/06 08:19:30;;;;;;;15.05;10.90;;;;;;;43.56;19.97;99977.59;6228641;22;20360;-75
2022/08/06 08:21:56;;;;;;;17.17;12.23;;;;;;;44.14;20.04;99983.88;6228580;22;20015;-75
2022/08/06 08:24:21;;;;;;;14.80;12.75;;;;;;;45.12;19.27;99979.88;6230244;22;20074;-75
2022/08/06 08:26:45;;;;;;;14.05;12.65;;;;;;;46.46;17.88;99982.28;6230176;22;20016;-72
2022/08/06 08:29:11;;;;;;;14.70;13.35;;;;;;;47.79;16.69;99980.59;6230277;22;20806;-72
2022/08/06 08:31:36;;;;;;;15.95;14.45;;;;;;;48.69;16.01;99969.94;6228459;22;20102;-73
2022/08/06 08:34:01;;;;;;;15.60;14.30;;;;;;;48.54;15.05;99987.66;6228229;22;20058;-73
2022/08/06 08:36:25;;;;;;;16.75;14.88;;;;;;;48.13;15.77;99976.53;6228188;22;20020;-72
2022/08/06 08:38:56;;;;;;;16.13;14.50;;;;;;;47.25;16.36;99981.41;6203057;22;20455;-73
2022/08/06 08:41:25;;;;;;;15.63;14.43;;;;;;;47.04;16.09;99982.59;6202989;22;20332;-74
2022/08/06 08:44:05;;;;;;;14.43;13.10;;;;;;;46.93;16.26;99979.34;6177448;22;20016;-74
2022/08/06 08:46:34;;;;;;;15.35;13.77;;;;;;;46.73;15.98;99972.50;6228326;22;20021;-74
2022/08/06 08:49:03;;;;;;;14.70;13.60;;;;;;;47.59;16.57;99980.28;6230447;22;20023;-73
2022/08/06 08:51:30;;;;;;;15.73;14.35;;;;;;;47.93;15.33;99973.44;6231038;22;20095;-74
2022/08/06 08:53:59;;;;;;;16.88;15.48;;;;;;;47.70;15.02;99969.34;6231669;22;20024;-74
2022/08/06 08:56:25;;;;;;;17.05;15.55;;;;;;;47.12;16.45;99973.22;6230359;22;20020;-73
2022/08/06 08:58:51;;;;;;;17.38;16.13;;;;;;;47.67;15.59;99962.41;6234823;22;20107;-73
2022/08/06 09:01:16;;;;;;;15.30;13.88;;;;;;;47.93;14.51;99972.63;6231605;22;20473;-74
2022/08/06 09:03:41;;;;;;;15.15;14.05;;;;;;;47.63;15.03;99955.81;6202724;22;20090;-75
2022/08/06 09:06:08;;;;;;;14.13;13.02;;;;;;;47.74;14.43;99961.88;6230224;22;20093;-71
2022/08/06 09:08:33;;;;;;;14.27;12.80;;;;;;;47.26;14.45;99957.66;6230024;22;20073;-71
2022/08/06 09:10:59;;;;;;;14.82;13.70;;;;;;;46.76;15.44;99965.34;6202945;22;20024;-71
2022/08/06 09:13:26;;;;;;;14.88;13.57;;;;;;;46.53;16.11;99967.63;6202804;22;20023;-71
2022/08/06 09:15:52;;;;;;;15.00;13.70;;;;;;;47.20;15.39;99956.19;6229676;22;20363;-72
2022/08/06 09:18:17;;;;;;;15.23;13.70;;;;;;;47.63;15.00;99947.34;6227327;22;20027;-71
2022/08/06 09:20:42;;;;;;;15.35;14.02;;;;;;;47.69;14.94;99960.06;6229589;22;20845;-71
2022/08/06 09:23:07;;;;;;;13.93;12.70;;;;;;;47.04;15.42;99957.19;6202543;22;20524;-72
2022/08/06 09:25:41;;;;;;;13.55;12.43;;;;;;;47.55;15.04;99959.53;6227955;22;20016;-71
2022/08/06 09:28:25;;;;;;;14.20;12.90;;;;;;;47.04;15.52;99962.84;6228029;22;20015;-72
2022/08/06 09:31:00;;;;;;;13.68;12.25;;;;;;;47.64;14.98;99953.78;6227937;22;20011;-71
2022/08/06 09:33:25;;;;;;;16.20;14.60;;;;;;;48.24;14.27;99952.28;6229628;22;20034;-72
2022/08/06 09:36:03;;;;;;;15.93;14.48;;;;;;;49.34;14.09;99958.59;6229653;22;20351;-72
2022/08/06 09:38:29;;;;;;;17.98;16.50;;;;;;;49.31;13.33;99960.16;6202920;22;20099;-71
2022/08/06 09:41:08;;;;;;;17.42;16.02;;;;;;;49.04;14.45;99956.09;6229761;22;20023;-71
2022/08/06 09:43:34;;;;;;;16.85;15.43;;;;;;;47.86;14.91;99950.56;6228109;22;20349;-74
2022/08/06 09:45:59;;;;;;;19.73;18.13;;;;;;;46.91;15.01;99931.69;6228081;22;20039;-76
2022/08/06 09:48:24;;;;;;;17.33;15.82;;;;;;;46.75;15.80;99933.47;6228067;22;20069;-70
2022/08/06 09:50:49;;;;;;;17.15;15.77;;;;;;;47.21;15.67;99928.78;6229564;22;20074;-69
2022/08/06 09:53:17;;;;;;;18.50;16.90;;;;;;;47.67;14.99;99927.66;6229214;22;20016;-73
2022/08/06 09:55:42;;;;;;;17.80;16.00;;;;;;;47.49;14.97;99929.88;6202167;22;20330;-74
2022/08/06 09:58:07;;;;;;;14.93;13.65;;;;;;;45.89;15.80;99936.75;6227656;22;20385;-74
2022/08/06 10:00:34;;;;;;;13.60;12.40;;;;;;;45.49;16.53;99928.50;6231080;22;20015;-71
2022/08/06 10:03:05;;;;;;;16.80;13.77;;;;;;;45.98;17.41;99928.25;6231367;22;20016;-72
2022/08/06 10:05:30;;;;;;;13.77;12.57;;;;;;;46.57;15.72;99929.94;6229307;22;20011;-72
2022/08/06 10:08:09;;;;;;;13.73;12.38;;;;;;;45.76;15.81;99926.47;6230631;22;20011;-73
2022/08/06 10:10:51;;;;;;;13.13;12.05;;;;;;;43.99;16.93;99935.75;6205035;22;20023;-72
2022/08/06 10:13:20;;;;;;;13.10;10.57;;;;;;;41.45;18.88;99926.50;6231493;22;20094;-72
2022/08/06 10:15:48;;;;;;;10.75;9.75;;;;;;;39.87;21.18;99914.69;6231366;22;20469;-72
2022/08/06 10:18:30;;;;;;;11.82;10.55;;;;;;;40.65;20.62;99916.25;6230904;22;20022;-69
2022/08/06 10:21:06;;;;;;;12.38;10.63;;;;;;;42.06;19.56;99915.03;6231411;22;20363;-70
2022/08/06 10:23:34;;;;;;;12.60;9.57;;;;;;;41.14;20.01;99906.63;6229744;22;20450;-70
2022/08/06 10:26:00;;;;;;;15.10;10.27;;;;;;;40.35;21.37;99899.91;6231251;22;20095;-72
2022/08/06 10:28:27;;;;;;;10.85;9.85;;;;;;;40.41;21.57;99899.53;6229801;22;20422;-70
2022/08/06 10:30:53;;;;;;;11.32;10.23;;;;;;;39.89;22.59;99892.91;6230910;22;20019;-70
2022/08/06 10:33:19;;;;;;;14.32;11.40;;;;;;;38.11;23.60;99890.56;6229723;22;20578;-70
2022/08/06 10:35:46;;;;;;;9.70;8.68;;;;;;;36.77;26.23;99880.09;6230074;22;20019;-69
2022/08/06 10:38:16;;;;;;;9.65;8.70;;;;;;;35.37;27.68;99878.00;6231235;22;20088;-71
2022/08/06 10:40:43;;;;;;;12.73;9.23;;;;;;;34.79;27.74;99876.06;6229339;22;20015;-70
2022/08/06 10:43:09;;;;;;;15.95;9.77;;;;;;;34.70;27.43;99858.22;6230949;22;20027;-70
2022/08/06 10:45:35;;;;;;;10.85;8.95;;;;;;;34.22;29.08;99863.50;6229564;22;20043;-70
2022/08/06 10:48:00;;;;;;;10.45;9.07;;;;;;;33.44;30.53;99856.34;6179148;22;20011;-70
2022/08/06 10:50:26;;;;;;;13.15;9.80;;;;;;;32.96;31.64;99853.34;6203631;22;20019;-71
2022/08/06 10:52:51;;;;;;;10.07;8.98;;;;;;;32.53;32.42;99856.66;6230641;22;20050;-70
2022/08/06 10:55:17;;;;;;;13.43;9.70;;;;;;;31.92;33.24;99842.50;6231014;22;20019;-71
2022/08/06 10:57:42;;;;;;;12.93;10.05;;;;;;;31.10;34.42;99841.69;6228820;22;20076;-69
2022/08/06 11:00:08;;;;;;;10.98;9.73;;;;;;;30.38;36.64;99843.59;6203048;22;20459;-70
2022/08/06 11:03:00;;;;;;;11.55;9.60;;;;;;;30.37;36.38;99841.91;6231307;22;20016;-71
2022/08/06 11:05:29;;;;;;;13.02;9.25;;;;;;;30.30;37.31;99844.78;6238286;22;20125;-70
2022/08/06 11:08:18;;;;;;;10.45;8.82;;;;;;;30.42;37.10;99842.06;6236249;22;20011;-70
2022/08/06 11:10:55;;;;;;;19.75;9.70;;;;;;;30.38;36.85;99837.25;6205808;22;20094;-70
2022/08/06 11:13:38;;;;;;;13.02;9.70;;;;;;;30.43;37.62;99830.00;6243160;22;20324;-69
2022/08/06 11:16:03;;;;;;;10.63;8.73;;;;;;;30.58;36.22;99833.19;6207152;22;20331;-70
2022/08/06 11:18:28;;;;;;;13.48;9.32;;;;;;;30.71;35.99;99836.78;6231785;22;20336;-69
2022/08/06 11:20:54;;;;;;;13.90;9.45;;;;;;;30.78;35.49;99830.13;6232398;22;20082;-72
2022/08/06 11:23:19;;;;;;;11.88;9.75;;;;;;;30.65;36.31;99827.56;6206429;22;20019;-73
2022/08/06 11:25:46;;;;;;;9.77;8.77;;;;;;;30.84;36.29;99836.56;6232372;22;20069;-71
2022/08/06 11:28:13;;;;;;;13.63;9.27;;;;;;;31.17;35.03;99816.75;6236446;22;20011;-70